createdAt,value
2023-03-10T00:00:14.240Z,98681.66
2023-03-10T00:02:46.716Z,98681.88
2023-03-10T00:05:13.536Z,98676.81
2023-03-10T00:07:40.265Z,98679.16
2023-03-10T00:10:07.368Z,98673.47
2023-03-10T00:12:34.127Z,98653.72
2023-03-10T00:15:05.082Z,98646.13
2023-03-10T00:17:31.766Z,98646.69
2023-03-10T00:19:58.453Z,98652.84
2023-03-10T00:22:25.273Z,98642.47
2023-03-10T00:24:52.042Z,98625.34
2023-03-10T00:27:34.699Z,98624.78
2023-03-10T00:30:02.063Z,98627.44
2023-03-10T00:32:34.825Z,98618.53
2023-03-10T00:35:01.901Z,98617.50
2023-03-10T00:37:28.578Z,98611.53
2023-03-10T00:39:55.826Z,98621.91
2023-03-10T00:42:22.970Z,98619.31
2023-03-10T00:44:49.785Z,98614.81
2023-03-10T00:47:16.479Z,98609.31
2023-03-10T00:49:43.105Z,98598.91
2023-03-10T00:52:09.901Z,98595.63
2023-03-10T00:54:40.233Z,98601.34
2023-03-10T00:57:07.228Z,98605.72
2023-03-10T00:59:47.891Z,98588.88
2023-03-10T01:02:16.285Z,98566.25
2023-03-10T01:04:43.114Z,98544.13
2023-03-10T01:07:09.925Z,98537.19
2023-03-10T01:09:36.875Z,98526.06
2023-03-10T01:12:03.869Z,98523.84
2023-03-10T01:14:32.028Z,98522.31
2023-03-10T01:16:59.602Z,98512.44
2023-03-10T01:19:26.351Z,98516.53
2023-03-10T01:21:53.046Z,98505.91
2023-03-10T01:24:19.839Z,98501.88
2023-03-10T01:26:46.537Z,98503.09
2023-03-10T01:29:13.303Z,98498.63
2023-03-10T01:31:42.071Z,98494.38
2023-03-10T01:34:08.909Z,98491.09
2023-03-10T01:36:35.704Z,98491.22
2023-03-10T01:39:02.423Z,98479.44
2023-03-10T01:41:29.687Z,98470.19
2023-03-10T01:43:57.225Z,98472.50
2023-03-10T01:46:27.197Z,98463.84
2023-03-10T01:49:00.248Z,98451.69
2023-03-10T01:51:27.655Z,98448.13
2023-03-10T01:53:54.529Z,98448.50
2023-03-10T01:56:21.277Z,98445.72
2023-03-10T01:58:48.592Z,98441.03
2023-03-10T02:01:17.032Z,98435.31
2023-03-10T02:03:49.886Z,98420.38
2023-03-10T02:06:19.590Z,98414.44
2023-03-10T02:08:50.603Z,98416.13
2023-03-10T02:11:19.928Z,98400.53
2023-03-10T02:13:47.291Z,98397.38
2023-03-10T02:16:15.377Z,98394.66
2023-03-10T02:18:44.596Z,98393.69
2023-03-10T02:21:41.295Z,98385.25
2023-03-10T02:24:34.440Z,98379.25
2023-03-10T02:27:12.961Z,98374.94
2023-03-10T02:29:57.991Z,98364.84
2023-03-10T02:32:27.384Z,98354.75
2023-03-10T02:34:54.173Z,98351.09
2023-03-10T02:37:24.799Z,98336.22
2023-03-10T02:39:53.396Z,98332.53
2023-03-10T02:42:21.218Z,98317.34
2023-03-10T02:44:49.273Z,98320.59
2023-03-10T02:47:16.632Z,98308.25
2023-03-10T02:49:44.431Z,98309.84
2023-03-10T02:52:38.498Z,98310.22
2023-03-10T02:55:05.812Z,98303.09
2023-03-10T02:57:32.523Z,98293.78
2023-03-10T03:00:00.846Z,98291.47
2023-03-10T03:02:27.590Z,98283.38
2023-03-10T03:04:54.374Z,98276.31
2023-03-10T03:07:21.148Z,98265.88
2023-03-10T03:09:47.953Z,98269.50
2023-03-10T03:12:14.843Z,98262.13
2023-03-10T03:14:44.116Z,98252.78
2023-03-10T03:17:10.847Z,98245.97
2023-03-10T03:19:37.555Z,98246.03
2023-03-10T03:22:04.260Z,98242.09
2023-03-10T03:24:32.235Z,98239.06
2023-03-10T03:26:59.226Z,98229.34
2023-03-10T03:29:28.056Z,98245.88
2023-03-10T03:31:55.118Z,98234.38
2023-03-10T03:34:25.800Z,98224.66
2023-03-10T03:36:55.622Z,98216.78
2023-03-10T03:39:28.284Z,98218.97
2023-03-10T03:41:58.815Z,98215.00
2023-03-10T03:44:30.189Z,98211.00
2023-03-10T03:46:57.132Z,98211.31
2023-03-10T03:49:25.224Z,98194.22
2023-03-10T03:51:52.198Z,98176.53
2023-03-10T03:54:19.459Z,98177.78
2023-03-10T03:56:46.522Z,98181.59
2023-03-10T03:59:14.500Z,98170.31
2023-03-10T04:01:41.699Z,98176.56
2023-03-10T04:04:09.263Z,98159.50
2023-03-10T04:06:36.277Z,98154.88
2023-03-10T04:09:04.351Z,98146.91
2023-03-10T04:11:32.751Z,98136.97
2023-03-10T04:14:00.158Z,98146.00
2023-03-10T04:16:27.574Z,98138.84
2023-03-10T04:18:54.475Z,98129.41
2023-03-10T04:21:21.219Z,98124.69
2023-03-10T04:23:51.213Z,98127.63
2023-03-10T04:26:22.627Z,98111.94
2023-03-10T04:28:49.893Z,98124.50
2023-03-10T04:31:22.150Z,98109.22
2023-03-10T04:33:50.471Z,98102.19
2023-03-10T04:36:19.240Z,98089.09
2023-03-10T04:38:51.638Z,98097.97
2023-03-10T04:41:19.187Z,98093.50
2023-03-10T04:43:47.871Z,98092.88
2023-03-10T04:46:16.765Z,98099.06
2023-03-10T04:48:44.484Z,98088.38
2023-03-10T04:51:12.626Z,98083.78
2023-03-10T04:53:45.810Z,98093.94
2023-03-10T04:56:12.915Z,98092.16
2023-03-10T04:58:40.431Z,98098.34
2023-03-10T05:01:12.405Z,98101.91
2023-03-10T05:03:43.561Z,98098.88
2023-03-10T05:06:16.007Z,98100.97
2023-03-10T05:08:46.984Z,98110.47
2023-03-10T05:11:15.044Z,98081.81
2023-03-10T05:13:41.815Z,98097.06
2023-03-10T05:16:16.951Z,98087.75
2023-03-10T05:18:45.579Z,98077.06
2023-03-10T05:21:13.215Z,98080.44
2023-03-10T05:23:41.090Z,98064.31
2023-03-10T05:26:09.747Z,98068.41
2023-03-10T05:28:37.057Z,98051.81
2023-03-10T05:31:12.759Z,98051.00
2023-03-10T05:33:44.824Z,98040.31
2023-03-10T05:36:14.863Z,98036.03
2023-03-10T05:38:44.068Z,98037.69
2023-03-10T05:41:13.785Z,98031.94
2023-03-10T05:43:41.879Z,98032.47
2023-03-10T05:46:10.835Z,98028.38
2023-03-10T05:48:43.877Z,98013.50
2023-03-10T05:51:12.192Z,98018.41
2023-03-10T05:53:39.304Z,98013.41
2023-03-10T05:56:12.224Z,98013.41
2023-03-10T05:58:39.945Z,98010.03
2023-03-10T06:01:11.540Z,98008.06
2023-03-10T06:03:41.184Z,98002.59
2023-03-10T06:06:08.289Z,98001.78
2023-03-10T06:08:35.429Z,97998.09
2023-03-10T06:11:02.671Z,98000.91
2023-03-10T06:13:29.526Z,98004.63
2023-03-10T06:16:04.110Z,98001.78
2023-03-10T06:18:32.137Z,98000.75
2023-03-10T06:20:58.882Z,98012.06
2023-03-10T06:23:26.366Z,98006.00
2023-03-10T06:26:01.995Z,98004.09
2023-03-10T06:28:33.215Z,98001.16
2023-03-10T06:31:01.570Z,97996.31
2023-03-10T06:33:28.878Z,97995.28
2023-03-10T06:35:55.947Z,97997.81
2023-03-10T06:38:23.130Z,97993.63
2023-03-10T06:40:50.090Z,97989.03
2023-03-10T06:43:16.973Z,97988.47
2023-03-10T06:45:45.216Z,97980.59
2023-03-10T06:48:12.512Z,97978.91
2023-03-10T06:50:48.039Z,97978.06
2023-03-10T06:53:16.850Z,97983.31
2023-03-10T06:55:43.734Z,97979.94
2023-03-10T06:58:10.593Z,97972.81
2023-03-10T07:00:39.171Z,97978.56
2023-03-10T07:03:06.090Z,97981.91
2023-03-10T07:05:32.816Z,97987.91
2023-03-10T07:07:59.585Z,97983.91
2023-03-10T07:10:26.387Z,97986.94
2023-03-10T07:12:55.370Z,97980.03
2023-03-10T07:15:23.052Z,97978.00
2023-03-10T07:17:49.849Z,97979.78
2023-03-10T07:20:17.412Z,97991.22
2023-03-10T07:22:44.699Z,97984.31
2023-03-10T07:25:11.521Z,97984.91
2023-03-10T07:27:38.307Z,97973.72
2023-03-10T07:30:06.143Z,97973.09
2023-03-10T07:32:33.114Z,97979.56
2023-03-10T07:34:59.901Z,97966.38
2023-03-10T07:37:26.649Z,97977.44
2023-03-10T07:39:54.711Z,97969.72
2023-03-10T07:42:21.599Z,97974.63
2023-03-10T07:44:48.567Z,97969.78
2023-03-10T07:47:15.321Z,97969.53
2023-03-10T07:49:47.010Z,97967.53
2023-03-10T07:52:15.366Z,97969.91
2023-03-10T07:54:44.389Z,97968.34
2023-03-10T07:57:12.868Z,97968.91
2023-03-10T07:59:40.372Z,97961.63
2023-03-10T08:02:07.505Z,97972.00
2023-03-10T08:04:34.371Z,97974.16
2023-03-10T08:07:02.425Z,97973.00
2023-03-10T08:09:29.928Z,97968.72
2023-03-10T08:11:58.969Z,97970.13
2023-03-10T08:14:28.232Z,97977.84
2023-03-10T08:16:56.837Z,97976.91
2023-03-10T08:19:24.400Z,97967.25
2023-03-10T08:21:52.167Z,97962.66
2023-03-10T08:24:18.881Z,97968.44
2023-03-10T08:26:45.646Z,97962.88
2023-03-10T08:29:12.469Z,97953.19
2023-03-10T08:31:41.371Z,97958.84
2023-03-10T08:34:19.705Z,97958.31
2023-03-10T08:36:52.201Z,97963.38
2023-03-10T08:39:27.743Z,97969.19
2023-03-10T08:41:55.281Z,97960.84
2023-03-10T08:44:22.312Z,97965.47
2023-03-10T08:46:49.982Z,97968.28
2023-03-10T08:49:18.606Z,97978.63
2023-03-10T08:51:50.643Z,97971.78
2023-03-10T08:54:22.512Z,97970.25
2023-03-10T08:56:49.761Z,97968.75
2023-03-10T08:59:23.518Z,97978.50
2023-03-10T09:01:54.032Z,97977.56
2023-03-10T09:04:23.735Z,97981.31
2023-03-10T09:06:51.244Z,97982.75
2023-03-10T09:09:24.605Z,97983.38
2023-03-10T09:11:56.373Z,97981.97
2023-03-10T09:14:23.727Z,97988.94
2023-03-10T09:16:50.864Z,97978.25
2023-03-10T09:19:26.250Z,97986.50
2023-03-10T09:21:55.518Z,97998.16
2023-03-10T09:24:38.279Z,97986.00
2023-03-10T09:27:15.388Z,97971.94
2023-03-10T09:29:51.190Z,97977.78
2023-03-10T09:32:24.003Z,97987.50
2023-03-10T09:34:54.398Z,97991.94
2023-03-10T09:37:28.511Z,97992.00
2023-03-10T09:40:16.393Z,97994.75
2023-03-10T09:42:57.576Z,98011.94
2023-03-10T09:45:56.610Z,98004.94
2023-03-10T09:48:50.637Z,97998.25
2023-03-10T09:51:32.020Z,98013.66
2023-03-10T09:54:25.938Z,98006.97
2023-03-10T09:56:55.254Z,98021.75
2023-03-10T09:59:43.043Z,98028.22
2023-03-10T10:02:39.566Z,98016.94
2023-03-10T10:05:18.486Z,98018.75
2023-03-10T10:07:52.406Z,98015.50
2023-03-10T10:10:39.601Z,98027.66
2023-03-10T10:13:16.811Z,98036.47
2023-03-10T10:15:51.331Z,98042.41
2023-03-10T10:18:27.031Z,98044.09
2023-03-10T10:21:13.589Z,98037.47
2023-03-10T10:23:51.360Z,98030.22
2023-03-10T10:26:24.258Z,98034.19
2023-03-10T10:29:07.127Z,98037.53
2023-03-10T10:31:36.046Z,98033.88
2023-03-10T10:34:22.280Z,98043.50
2023-03-10T10:36:55.388Z,98036.84
2023-03-10T10:39:41.066Z,98041.19
2023-03-10T10:42:26.904Z,98046.63
2023-03-10T10:45:02.567Z,98048.09
2023-03-10T10:47:36.861Z,98043.72
2023-03-10T10:50:24.106Z,98052.91
2023-03-10T10:53:16.225Z,98042.34
2023-03-10T10:55:44.773Z,98052.59
2023-03-10T10:58:28.644Z,98052.16
2023-03-10T11:00:59.327Z,98055.63
2023-03-10T11:03:28.321Z,98047.75
2023-03-10T11:05:56.515Z,98049.06
2023-03-10T11:08:27.221Z,98053.06
2023-03-10T11:10:59.768Z,98052.69
2023-03-10T11:13:35.877Z,98050.19
2023-03-10T11:16:23.959Z,98054.25
2023-03-10T11:18:58.666Z,98051.75
2023-03-10T11:21:32.594Z,98047.22
2023-03-10T11:24:17.773Z,98051.41
2023-03-10T11:26:52.258Z,98049.34
2023-03-10T11:29:28.223Z,98044.91
2023-03-10T11:32:04.108Z,98044.13
2023-03-10T11:34:32.392Z,98044.09
2023-03-10T11:37:05.658Z,98039.09
2023-03-10T11:39:46.284Z,98036.84
2023-03-10T11:42:32.644Z,98042.03
2023-03-10T11:45:13.075Z,98044.34
2023-03-10T11:48:03.588Z,98031.91
2023-03-10T11:50:38.357Z,98031.78
2023-03-10T11:53:26.284Z,98046.81
2023-03-10T11:55:54.145Z,98038.31
2023-03-10T11:58:28.970Z,98033.56
2023-03-10T12:00:56.114Z,98033.75
2023-03-10T12:03:43.628Z,98041.53
2023-03-10T12:06:14.349Z,98038.13
2023-03-10T12:08:41.868Z,98038.50
2023-03-10T12:11:15.518Z,98038.97
2023-03-10T12:13:47.291Z,98036.72
2023-03-10T12:16:26.099Z,98039.09
2023-03-10T12:18:56.889Z,98037.03
2023-03-10T12:39:32.775Z,98057.06
2023-03-10T12:42:04.259Z,98053.06
2023-03-10T12:57:59.562Z,98050.97
2023-03-10T13:03:53.811Z,98062.25
2023-03-10T13:06:47.926Z,98055.72
2023-03-10T13:10:22.819Z,98056.28
2023-03-10T13:13:07.096Z,98046.53
2023-03-10T13:48:39.506Z,98074.31
2023-03-10T13:51:58.969Z,98059.56
2023-03-10T14:02:13.701Z,98044.06
2023-03-10T14:05:57.064Z,98034.91
2023-03-10T14:08:34.082Z,98030.47
2023-03-10T14:11:25.239Z,98034.09
2023-03-10T14:41:40.195Z,98067.88
2023-03-10T14:44:10.079Z,98062.34
2023-03-10T14:50:23.874Z,98062.81
2023-03-10T14:52:58.183Z,98058.63
2023-03-10T14:55:41.926Z,98052.06
2023-03-10T14:59:07.969Z,98062.94
2023-03-10T15:01:41.955Z,98043.25
2023-03-10T15:04:27.646Z,98042.41
2023-03-10T15:07:04.607Z,98043.22
2023-03-10T15:10:10.588Z,98039.88
2023-03-10T15:13:02.139Z,98038.91
2023-03-10T15:16:03.490Z,98051.41
2023-03-10T15:19:00.627Z,98055.16
2023-03-10T15:21:27.874Z,98041.84
2023-03-10T15:24:23.604Z,98040.78
2023-03-10T15:27:34.044Z,98034.63
2023-03-10T15:38:21.304Z,98065.22
2023-03-10T15:40:58.346Z,98074.25
2023-03-10T15:44:33.229Z,98069.53
2023-03-10T15:47:11.102Z,98056.16
2023-03-10T15:50:25.957Z,98064.28
2023-03-10T15:53:26.022Z,98075.00
2023-03-10T15:55:56.608Z,98066.19
2023-03-10T15:58:30.427Z,98066.28
2023-03-10T16:01:21.074Z,98063.06
2023-03-10T16:03:58.628Z,98058.03
2023-03-10T16:06:40.277Z,98063.72
2023-03-10T16:09:51.946Z,98061.84
2023-03-10T16:12:23.850Z,98066.47
2023-03-10T16:14:55.548Z,98078.81
2023-03-10T16:17:29.160Z,98085.97
2023-03-10T16:20:00.890Z,98085.38
2023-03-10T16:22:27.926Z,98093.72
2023-03-10T16:24:54.925Z,98084.44
2023-03-10T16:27:21.733Z,98084.34
2023-03-10T16:29:51.943Z,98095.69
2023-03-10T16:32:19.865Z,98092.41
2023-03-10T16:35:04.337Z,98083.56
2023-03-10T16:37:40.653Z,98076.41
2023-03-10T16:40:26.777Z,98059.66
2023-03-10T16:42:58.455Z,98066.03
2023-03-10T16:45:33.856Z,98059.84
2023-03-10T16:48:09.768Z,98065.75
2023-03-10T16:50:38.036Z,98076.13
2023-03-10T16:53:07.922Z,98074.69
2023-03-10T16:55:35.094Z,98078.66
2023-03-10T16:58:03.702Z,98074.69
2023-03-10T17:00:31.400Z,98073.19
2023-03-10T17:03:00.432Z,98077.06
2023-03-10T17:13:00.556Z,98096.22
2023-03-10T17:16:30.475Z,98078.81
2023-03-10T17:19:24.612Z,98078.06
2023-03-10T17:22:12.074Z,98081.56
2023-03-10T17:24:42.008Z,98070.25
2023-03-10T17:27:20.882Z,98073.06
2023-03-10T17:30:03.614Z,98060.41
2023-03-10T17:33:04.700Z,98043.72
2023-03-10T17:36:00.738Z,98044.25
2023-03-10T17:38:41.495Z,98030.34
2023-03-10T17:41:12.260Z,98042.09
2023-03-10T17:43:57.161Z,98038.03
2023-03-10T17:46:45.736Z,98040.00
2023-03-10T17:50:02.601Z,98035.00
2023-03-10T17:52:42.885Z,98026.72
2023-03-10T17:55:34.578Z,98034.34
2023-03-10T17:58:08.843Z,98029.00
2023-03-10T18:00:36.706Z,98032.47
2023-03-10T18:03:37.127Z,98052.38
2023-03-10T18:06:33.907Z,98060.84
2023-03-10T18:09:32.731Z,98069.84
2023-03-10T18:12:23.670Z,98083.53
2023-03-10T18:15:09.725Z,98094.53
2023-03-10T18:25:15.005Z,98044.50
2023-03-10T18:31:08.181Z,98046.06
2023-03-10T18:34:10.509Z,98045.34
2023-03-10T18:37:28.402Z,98041.88
2023-03-10T18:40:11.114Z,98038.84
2023-03-10T18:46:28.095Z,98019.81
2023-03-10T18:52:30.550Z,98021.38
2023-03-10T18:55:24.449Z,98021.47
2023-03-10T18:58:20.974Z,98006.41
2023-03-10T19:00:48.218Z,98014.50
2023-03-10T19:03:23.916Z,98006.41
2023-03-10T19:06:16.909Z,98007.47
2023-03-10T19:09:12.647Z,98013.94
2023-03-10T19:12:18.449Z,98007.06
2023-03-10T19:21:43.545Z,98000.97
2023-03-10T19:25:17.811Z,98005.25
2023-03-10T19:28:35.454Z,98014.06
2023-03-10T19:31:24.658Z,98011.97
2023-03-10T19:33:56.821Z,97999.91
2023-03-10T19:36:30.371Z,98011.75
2023-03-10T19:39:00.814Z,98003.47
2023-03-10T19:41:44.763Z,97996.78
2023-03-10T19:44:31.093Z,98003.47
2023-03-10T19:47:00.974Z,98001.19
2023-03-10T19:55:58.806Z,98004.75
2023-03-10T19:58:48.638Z,98004.53
2023-03-10T20:01:57.084Z,98004.84
2023-03-10T20:04:24.033Z,98003.28
2023-03-10T20:06:51.012Z,97996.47
2023-03-10T20:09:19.076Z,97987.81
2023-03-10T20:11:51.324Z,97984.75
2023-03-10T20:17:09.600Z,97982.69
2023-03-10T20:19:36.833Z,97969.25
2023-03-10T20:22:04.809Z,97970.53
2023-03-10T20:24:31.928Z,97973.25
2023-03-10T20:27:00.348Z,97965.19
2023-03-10T20:29:30.470Z,97975.03
2023-03-10T20:31:57.508Z,97972.91
2023-03-10T20:34:26.002Z,97971.28
2023-03-10T20:36:55.260Z,97963.81
2023-03-10T20:39:22.481Z,97966.22
2023-03-10T20:41:49.906Z,97962.78
2023-03-10T20:44:17.281Z,97958.19
2023-03-10T20:46:47.203Z,97957.13
2023-03-10T20:49:18.414Z,97961.75
2023-03-10T20:51:46.122Z,97956.72
2023-03-10T20:54:19.245Z,97954.94
2023-03-10T20:56:51.862Z,97957.84
2023-03-10T20:59:27.217Z,97958.72
2023-03-10T21:02:38.310Z,97960.69
2023-03-10T21:05:08.708Z,97951.38
2023-03-10T21:07:35.790Z,97961.63
2023-03-10T21:10:04.505Z,97952.00
2023-03-10T21:12:34.450Z,97959.63
2023-03-10T21:15:07.550Z,97956.19
2023-03-10T21:17:37.510Z,97963.09
2023-03-10T21:20:08.177Z,97954.13
2023-03-10T21:22:35.680Z,97956.91
2023-03-10T21:25:06.968Z,97950.44
2023-03-10T21:27:35.849Z,97955.69
2023-03-10T21:30:08.076Z,97962.66
2023-03-10T21:32:35.494Z,97945.22
2023-03-10T21:35:05.231Z,97954.31
2023-03-10T21:37:32.959Z,97962.88
2023-03-10T21:40:01.306Z,97954.81
2023-03-10T21:42:28.182Z,97955.38
2023-03-10T21:44:56.076Z,97953.25
2023-03-10T21:47:28.729Z,97947.00
2023-03-10T21:49:58.068Z,97940.78
2023-03-10T21:52:35.234Z,97937.56
2023-03-10T21:55:06.438Z,97941.94
2023-03-10T21:57:34.581Z,97944.69
2023-03-10T22:00:04.254Z,97941.00
2023-03-10T22:02:37.838Z,97939.16
2023-03-10T22:05:06.588Z,97940.72
2023-03-10T22:07:55.387Z,97941.88
2023-03-10T22:10:25.746Z,97929.09
2023-03-10T22:12:53.041Z,97939.88
2023-03-10T22:15:24.185Z,97938.81
2023-03-10T22:17:54.184Z,97941.94
2023-03-10T22:20:23.941Z,97941.94
2023-03-10T22:22:53.435Z,97953.47
2023-03-10T22:25:21.257Z,97945.53
2023-03-10T22:27:53.642Z,97940.72
2023-03-10T22:30:21.331Z,97936.81
2023-03-10T22:32:49.820Z,97941.53
2023-03-10T22:35:18.094Z,97940.72
2023-03-10T22:37:47.194Z,97941.53
2023-03-10T22:40:17.025Z,97942.38
2023-03-10T22:42:44.787Z,97942.47
2023-03-10T22:45:17.697Z,97934.44
2023-03-10T22:47:44.717Z,97928.34
2023-03-10T22:50:25.298Z,97931.06
2023-03-10T22:52:52.811Z,97935.56
2023-03-10T22:55:24.672Z,97929.72
2023-03-10T22:57:53.046Z,97931.28
2023-03-10T23:00:22.116Z,97934.44
2023-03-10T23:02:50.514Z,97927.31
2023-03-10T23:05:18.000Z,97935.44
2023-03-10T23:07:45.899Z,97926.03
2023-03-10T23:10:19.444Z,97932.44
2023-03-10T23:12:49.602Z,97926.34
2023-03-10T23:15:26.423Z,97939.63
2023-03-10T23:17:54.729Z,97939.63
2023-03-10T23:20:27.774Z,97947.38
2023-03-10T23:22:56.327Z,97944.66
2023-03-10T23:25:32.240Z,97949.16
2023-03-10T23:27:59.868Z,97950.50
2023-03-10T23:30:27.455Z,97961.81
2023-03-10T23:32:55.088Z,97957.72
2023-03-10T23:35:26.918Z,97959.22
2023-03-10T23:38:02.927Z,97959.81
2023-03-10T23:40:34.494Z,97961.81
2023-03-10T23:43:09.161Z,97969.56
2023-03-10T23:45:40.282Z,97978.34
2023-03-10T23:48:09.202Z,97978.34
2023-03-10T23:50:42.270Z,97985.75
2023-03-10T23:53:18.795Z,97983.97
2023-03-10T23:55:46.680Z,97988.16
2023-03-10T23:58:20.443Z,97987.31
